createdAt,value
2023-05-13T00:00:48.364Z,4.60
2023-05-13T00:03:15.781Z,4.95
2023-05-13T00:05:43.219Z,4.60
2023-05-13T00:08:12.836Z,5.20
2023-05-13T00:10:40.352Z,5.95
2023-05-13T00:13:08.842Z,5.78
2023-05-13T00:15:36.107Z,5.45
2023-05-13T00:18:03.426Z,5.40
2023-05-13T00:20:30.769Z,4.78
2023-05-13T00:22:58.149Z,5.93
2023-05-13T00:25:25.396Z,4.43
2023-05-13T00:27:52.691Z,4.90
2023-05-13T00:30:20.104Z,4.43
2023-05-13T00:32:47.993Z,4.53
2023-05-13T00:35:15.418Z,4.85
2023-05-13T00:37:42.761Z,4.80
2023-05-13T00:40:20.626Z,4.97
2023-05-13T00:42:48.207Z,4.78
2023-05-13T00:45:15.610Z,4.97
2023-05-13T00:47:43.630Z,4.60
2023-05-13T00:50:12.032Z,4.95
2023-05-13T00:52:40.359Z,4.30
2023-05-13T00:55:09.087Z,4.28
2023-05-13T00:57:37.908Z,5.45
2023-05-13T01:00:06.420Z,5.18
2023-05-13T01:02:47.277Z,5.88
2023-05-13T01:05:25.489Z,4.80
2023-05-13T01:08:08.848Z,4.50
2023-05-13T01:10:38.068Z,5.15
2023-05-13T01:13:11.869Z,4.90
2023-05-13T01:15:46.304Z,5.13
2023-05-13T01:18:19.777Z,5.25
2023-05-13T01:20:48.212Z,4.38
2023-05-13T01:23:15.496Z,5.30
2023-05-13T01:25:42.905Z,5.28
2023-05-13T01:28:10.559Z,5.22
2023-05-13T01:30:38.280Z,4.82
2023-05-13T01:33:06.078Z,4.72
2023-05-13T01:35:36.038Z,4.70
2023-05-13T01:38:04.871Z,4.45
2023-05-13T01:40:33.345Z,4.38
2023-05-13T01:43:01.193Z,5.00
2023-05-13T01:45:30.492Z,4.65
2023-05-13T01:47:58.003Z,6.03
2023-05-13T01:50:25.629Z,4.15
2023-05-13T01:52:53.159Z,4.60
2023-05-13T01:55:20.538Z,4.82
2023-05-13T01:57:47.917Z,4.47
2023-05-13T02:00:16.155Z,4.95
2023-05-13T02:02:47.202Z,4.72
2023-05-13T02:05:15.088Z,4.72
2023-05-13T02:07:42.595Z,4.85
2023-05-13T02:10:10.749Z,5.50
2023-05-13T02:12:38.150Z,5.78
2023-05-13T02:15:06.307Z,5.35
2023-05-13T02:17:33.649Z,5.13
2023-05-13T02:20:00.961Z,4.78
2023-05-13T02:22:28.497Z,6.07
2023-05-13T02:24:55.858Z,4.80
2023-05-13T02:27:24.097Z,6.10
2023-05-13T02:29:51.522Z,4.95
2023-05-13T02:32:18.818Z,4.25
2023-05-13T02:34:46.328Z,4.85
2023-05-13T02:37:14.000Z,4.22
2023-05-13T02:39:41.301Z,4.75
2023-05-13T02:42:08.636Z,4.28
2023-05-13T02:44:38.980Z,3.83
2023-05-13T02:47:06.432Z,5.90
2023-05-13T02:49:33.782Z,4.50
2023-05-13T02:52:01.151Z,5.43
2023-05-13T02:54:29.038Z,4.40
2023-05-13T02:56:56.350Z,5.00
2023-05-13T02:59:23.611Z,5.50
2023-05-13T03:01:50.938Z,4.40
2023-05-13T03:04:18.420Z,4.47
2023-05-13T03:06:47.145Z,6.18
2023-05-13T03:09:14.411Z,4.88
2023-05-13T03:11:41.785Z,4.70
2023-05-13T03:14:08.994Z,5.78
2023-05-13T03:16:36.358Z,5.30
2023-05-13T03:19:03.758Z,6.22
2023-05-13T03:21:31.372Z,6.25
2023-05-13T03:23:58.768Z,5.55
2023-05-13T03:26:27.390Z,6.13
2023-05-13T03:28:54.632Z,6.53
2023-05-13T03:31:22.277Z,5.35
2023-05-13T03:33:49.941Z,6.18
2023-05-13T03:36:17.278Z,6.15
2023-05-13T03:38:44.513Z,6.93
2023-05-13T03:41:12.021Z,6.70
2023-05-13T03:43:39.852Z,6.60
2023-05-13T03:46:07.200Z,6.68
2023-05-13T03:48:34.676Z,7.20
2023-05-13T03:51:02.610Z,6.80
2023-05-13T03:53:30.075Z,6.28
2023-05-13T03:55:57.491Z,6.82
2023-05-13T03:58:24.822Z,6.10
2023-05-13T04:00:52.342Z,6.40
2023-05-13T04:03:19.799Z,7.38
2023-05-13T04:05:47.644Z,7.38
2023-05-13T04:08:15.548Z,6.65
2023-05-13T04:10:43.072Z,6.88
2023-05-13T04:13:10.411Z,5.70
2023-05-13T04:15:37.778Z,5.53
2023-05-13T04:18:05.252Z,6.72
2023-05-13T04:20:32.644Z,6.28
2023-05-13T04:23:00.002Z,6.53
2023-05-13T04:25:27.399Z,7.18
2023-05-13T04:27:54.753Z,5.72
2023-05-13T04:30:22.745Z,5.57
2023-05-13T04:32:50.620Z,5.43
2023-05-13T04:35:17.936Z,5.05
2023-05-13T04:37:45.472Z,4.78
2023-05-13T04:40:13.344Z,4.75
2023-05-13T04:42:40.681Z,5.57
2023-05-13T04:45:08.812Z,4.20
2023-05-13T04:47:38.481Z,4.57
2023-05-13T04:50:07.221Z,4.70
2023-05-13T04:52:35.029Z,4.45
2023-05-13T04:55:02.328Z,4.43
2023-05-13T04:57:29.640Z,4.63
2023-05-13T04:59:57.041Z,5.53
2023-05-13T05:02:24.424Z,4.18
2023-05-13T05:04:51.909Z,3.97
2023-05-13T05:07:19.303Z,4.43
2023-05-13T05:09:46.765Z,4.43
2023-05-13T05:12:14.973Z,4.22
2023-05-13T05:14:42.499Z,4.35
2023-05-13T05:17:09.788Z,4.70
2023-05-13T05:19:37.098Z,3.88
2023-05-13T05:22:04.718Z,3.85
2023-05-13T05:24:32.102Z,3.85
2023-05-13T05:26:59.570Z,3.75
2023-05-13T05:29:26.818Z,3.55
2023-05-13T05:31:54.264Z,3.95
2023-05-13T05:34:21.629Z,3.90
2023-05-13T05:36:49.036Z,4.47
2023-05-13T05:39:16.282Z,4.93
2023-05-13T05:41:43.643Z,4.32
2023-05-13T05:44:13.879Z,3.97
2023-05-13T05:46:41.236Z,4.22
2023-05-13T05:49:08.794Z,5.20
2023-05-13T05:51:36.608Z,4.43
2023-05-13T05:54:04.166Z,4.10
2023-05-13T05:56:31.531Z,4.15
2023-05-13T05:58:58.844Z,3.67
2023-05-13T06:01:26.208Z,4.28
2023-05-13T06:03:54.920Z,4.30
2023-05-13T06:06:22.578Z,4.72
2023-05-13T06:08:50.089Z,4.53
2023-05-13T06:11:18.387Z,4.10
2023-05-13T06:13:45.807Z,3.58
2023-05-13T06:16:13.144Z,5.60
2023-05-13T06:18:40.738Z,4.47
2023-05-13T06:21:08.175Z,3.65
2023-05-13T06:23:35.497Z,4.10
2023-05-13T06:26:02.851Z,4.47
2023-05-13T06:28:30.181Z,3.90
2023-05-13T06:30:57.932Z,4.13
2023-05-13T06:33:25.490Z,4.20
2023-05-13T06:35:53.792Z,3.67
2023-05-13T06:38:21.281Z,4.47
2023-05-13T06:40:48.632Z,4.22
2023-05-13T06:43:16.811Z,3.50
2023-05-13T06:45:44.422Z,3.63
2023-05-13T06:48:11.725Z,3.72
2023-05-13T06:50:39.079Z,4.30
2023-05-13T06:53:06.403Z,3.80
2023-05-13T06:55:36.534Z,3.45
2023-05-13T06:58:03.780Z,4.30
2023-05-13T07:00:31.373Z,4.00
2023-05-13T07:02:58.755Z,3.90
2023-05-13T07:05:27.411Z,3.92
2023-05-13T07:07:54.843Z,4.20
2023-05-13T07:10:22.593Z,3.78
2023-05-13T07:12:50.391Z,3.80
2023-05-13T07:15:18.155Z,4.82
2023-05-13T07:17:45.569Z,4.13
2023-05-13T07:20:14.469Z,6.28
2023-05-13T07:22:41.909Z,4.18
2023-05-13T07:25:09.722Z,4.43
2023-05-13T07:27:36.970Z,4.22
2023-05-13T07:30:04.468Z,4.47
2023-05-13T07:32:36.457Z,5.32
2023-05-13T07:35:05.134Z,5.73
2023-05-13T07:37:32.540Z,4.20
2023-05-13T07:39:59.793Z,6.18
2023-05-13T07:42:27.722Z,4.82
2023-05-13T07:44:55.057Z,5.30
2023-05-13T07:47:22.698Z,6.25
2023-05-13T07:49:50.557Z,5.50
2023-05-13T07:52:17.946Z,5.38
2023-05-13T07:54:45.281Z,4.57
2023-05-13T07:57:12.685Z,4.90
2023-05-13T07:59:39.927Z,5.57
2023-05-13T08:02:10.864Z,5.20
2023-05-13T08:04:38.208Z,5.57
2023-05-13T08:07:05.923Z,5.22
2023-05-13T08:09:33.268Z,4.95
2023-05-13T08:12:00.603Z,5.47
2023-05-13T08:14:28.002Z,4.45
2023-05-13T08:16:55.430Z,5.18
2023-05-13T08:19:22.915Z,5.13
2023-05-13T08:21:50.533Z,4.72
2023-05-13T08:24:17.860Z,5.28
2023-05-13T08:26:45.299Z,4.70
2023-05-13T08:29:15.970Z,4.47
2023-05-13T08:31:43.530Z,4.50
2023-05-13T08:34:11.022Z,5.05
2023-05-13T08:36:38.562Z,5.22
2023-05-13T08:39:05.950Z,4.38
2023-05-13T08:41:34.711Z,5.15
2023-05-13T08:44:07.261Z,5.10
2023-05-13T08:46:36.756Z,5.88
2023-05-13T08:49:04.739Z,5.10
2023-05-13T08:51:32.610Z,5.00
2023-05-13T08:54:03.040Z,5.03
2023-05-13T08:56:30.377Z,6.20
2023-05-13T08:58:57.764Z,5.05
2023-05-13T09:01:26.917Z,5.03
2023-05-13T09:04:06.893Z,5.10
2023-05-13T09:06:34.649Z,5.50
2023-05-13T09:09:03.603Z,5.10
2023-05-13T09:11:30.938Z,5.15
2023-05-13T09:13:59.983Z,5.18
2023-05-13T09:16:29.666Z,6.78
2023-05-13T09:19:03.904Z,6.00
2023-05-13T09:21:35.928Z,5.22
2023-05-13T09:24:10.928Z,4.70
2023-05-13T09:26:39.007Z,5.65
2023-05-13T09:29:25.629Z,5.80
2023-05-13T09:31:55.645Z,4.68
2023-05-13T09:34:35.700Z,5.38
2023-05-13T09:37:05.687Z,6.43
2023-05-13T09:39:39.818Z,5.20
2023-05-13T09:42:17.153Z,5.35
2023-05-13T09:44:46.849Z,5.47
2023-05-13T09:47:15.259Z,5.25
2023-05-13T09:49:44.148Z,4.65
2023-05-13T09:52:12.389Z,6.38
2023-05-13T09:54:39.693Z,5.57
2023-05-13T09:57:07.087Z,5.80
2023-05-13T09:59:35.567Z,5.82
2023-05-13T10:02:07.190Z,6.03
2023-05-13T10:04:34.748Z,5.68
2023-05-13T10:07:04.507Z,6.03
2023-05-13T10:09:38.552Z,6.53
2023-05-13T10:12:09.112Z,5.50
2023-05-13T10:14:38.559Z,5.45
2023-05-13T10:17:07.220Z,5.88
2023-05-13T10:19:35.290Z,5.80
2023-05-13T10:22:03.977Z,5.30
2023-05-13T10:24:32.297Z,5.80
2023-05-13T10:27:02.857Z,5.68
2023-05-13T10:29:30.535Z,5.55
2023-05-13T10:31:59.103Z,5.53
2023-05-13T10:34:27.868Z,6.03
2023-05-13T10:37:11.329Z,5.47
2023-05-13T10:39:48.632Z,5.55
2023-05-13T10:42:27.170Z,5.80
2023-05-13T10:44:56.301Z,6.30
2023-05-13T10:47:24.070Z,5.85
2023-05-13T10:49:53.430Z,6.10
2023-05-13T10:52:21.130Z,6.07
2023-05-13T10:55:01.788Z,5.60
2023-05-13T10:57:31.182Z,5.65
2023-05-13T11:00:19.505Z,5.70
2023-05-13T11:02:47.039Z,7.18
2023-05-13T11:05:21.662Z,6.35
2023-05-13T11:07:57.810Z,6.40
2023-05-13T11:10:31.045Z,6.38
2023-05-13T11:13:08.667Z,5.65
2023-05-13T11:15:46.819Z,5.63
2023-05-13T11:18:14.242Z,6.05
2023-05-13T11:20:52.203Z,5.78
2023-05-13T11:23:21.427Z,5.97
2023-05-13T11:26:12.167Z,5.90
2023-05-13T11:28:58.872Z,6.20
2023-05-13T11:31:31.482Z,5.63
2023-05-13T11:34:16.551Z,6.13
2023-05-13T11:36:47.741Z,5.70
2023-05-13T11:39:18.038Z,6.18
2023-05-13T11:41:47.994Z,5.97
2023-05-13T11:44:18.185Z,5.57
2023-05-13T11:46:50.361Z,7.15
2023-05-13T11:49:23.699Z,6.78
2023-05-13T11:51:50.959Z,6.22
2023-05-13T11:54:18.374Z,6.20
2023-05-13T11:56:45.549Z,6.07
2023-05-13T11:59:15.838Z,6.28
2023-05-13T12:01:43.043Z,6.18
2023-05-13T12:04:13.266Z,6.13
2023-05-13T12:06:46.480Z,7.28
2023-05-13T12:09:13.891Z,6.75
2023-05-13T12:11:41.523Z,5.75
2023-05-13T12:14:09.442Z,5.80
2023-05-13T12:16:36.790Z,7.07
2023-05-13T12:19:07.511Z,5.65
2023-05-13T12:21:35.027Z,5.95
2023-05-13T12:24:02.214Z,5.88
2023-05-13T12:26:29.379Z,5.88
2023-05-13T12:28:59.837Z,5.25
2023-05-13T12:31:27.606Z,5.65
2023-05-13T12:33:54.960Z,6.53
2023-05-13T12:36:26.152Z,5.57
2023-05-13T12:39:00.185Z,5.75
2023-05-13T12:41:30.281Z,6.07
2023-05-13T12:43:58.925Z,6.45
2023-05-13T12:46:27.931Z,4.93
2023-05-13T12:48:57.736Z,5.45
2023-05-13T12:51:26.121Z,5.07
2023-05-13T12:53:54.762Z,5.47
2023-05-13T12:56:23.625Z,5.60
2023-05-13T12:58:52.131Z,6.25
2023-05-13T13:01:20.107Z,4.97
2023-05-13T13:03:47.383Z,5.72
2023-05-13T13:06:15.390Z,6.05
2023-05-13T13:08:43.137Z,5.90
2023-05-13T13:11:11.148Z,6.15
2023-05-13T13:13:39.409Z,6.07
2023-05-13T13:16:07.834Z,5.18
2023-05-13T13:18:35.785Z,6.85
2023-05-13T13:21:03.195Z,5.80
2023-05-13T13:23:30.598Z,5.93
2023-05-13T13:25:59.628Z,5.80
2023-05-13T13:28:32.731Z,6.00
2023-05-13T13:31:00.380Z,5.30
2023-05-13T13:33:28.076Z,5.57
2023-05-13T13:35:55.492Z,5.55
2023-05-13T13:38:22.834Z,5.18
2023-05-13T13:40:50.311Z,5.88
2023-05-13T13:43:17.609Z,5.03
2023-05-13T13:45:44.924Z,6.05
2023-05-13T13:48:12.290Z,5.40
2023-05-13T13:50:39.974Z,4.53
2023-05-13T13:53:07.321Z,5.35
2023-05-13T13:55:34.697Z,4.90
2023-05-13T13:58:01.987Z,4.80
2023-05-13T14:00:29.496Z,4.82
2023-05-13T14:02:57.034Z,5.43
2023-05-13T14:05:24.542Z,5.53
2023-05-13T14:07:54.552Z,5.80
2023-05-13T14:10:22.126Z,5.07
2023-05-13T14:12:49.741Z,5.32
2023-05-13T14:15:17.349Z,5.53
2023-05-13T14:17:44.757Z,5.47
2023-05-13T14:20:12.551Z,6.60
2023-05-13T14:22:39.898Z,6.03
2023-05-13T14:25:07.712Z,5.85
2023-05-13T14:27:36.707Z,6.70
2023-05-13T14:30:05.414Z,5.55
2023-05-13T14:32:33.670Z,5.55
2023-05-13T14:35:02.006Z,5.78
2023-05-13T14:37:29.642Z,5.82
2023-05-13T14:39:56.992Z,5.97
2023-05-13T14:42:24.185Z,5.25
2023-05-13T14:44:51.512Z,6.72
2023-05-13T14:47:18.968Z,6.30
2023-05-13T14:49:46.298Z,6.03
2023-05-13T14:52:13.615Z,6.78
2023-05-13T14:54:41.039Z,6.38
2023-05-13T14:57:08.475Z,6.50
2023-05-13T14:59:36.293Z,5.97
2023-05-13T15:02:04.090Z,5.95
2023-05-13T15:04:31.526Z,6.38
2023-05-13T15:06:59.011Z,6.15
2023-05-13T15:09:26.306Z,6.03
2023-05-13T15:11:53.708Z,5.60
2023-05-13T15:14:26.262Z,5.97
2023-05-13T15:16:53.972Z,5.93
2023-05-13T15:19:21.420Z,6.03
2023-05-13T15:21:48.829Z,6.15
2023-05-13T15:24:16.103Z,7.10
2023-05-13T15:26:45.133Z,6.80
2023-05-13T15:29:12.461Z,6.22
2023-05-13T15:31:39.629Z,7.07
2023-05-13T15:34:06.927Z,6.72
2023-05-13T15:36:35.908Z,6.25
2023-05-13T15:39:03.231Z,6.45
2023-05-13T15:41:30.553Z,6.82
2023-05-13T15:43:57.787Z,6.40
2023-05-13T15:46:26.200Z,6.25
2023-05-13T15:48:53.578Z,5.72
2023-05-13T15:51:21.146Z,6.45
2023-05-13T15:53:48.483Z,5.55
2023-05-13T15:56:15.910Z,5.32
2023-05-13T15:58:46.180Z,6.57
2023-05-13T16:01:13.626Z,6.30
2023-05-13T16:03:40.969Z,6.93
2023-05-13T16:06:08.342Z,5.78
2023-05-13T16:08:36.024Z,6.20
2023-05-13T16:11:04.062Z,6.40
2023-05-13T16:13:33.785Z,6.63
2023-05-13T16:16:01.175Z,5.72
2023-05-13T16:18:28.851Z,6.10
2023-05-13T16:20:57.143Z,6.65
2023-05-13T16:23:24.680Z,6.53
2023-05-13T16:25:52.090Z,7.65
2023-05-13T16:28:19.348Z,6.55
2023-05-13T16:30:47.242Z,6.45
2023-05-13T16:33:16.520Z,6.13
2023-05-13T16:35:44.429Z,6.10
2023-05-13T16:38:12.042Z,6.57
2023-05-13T16:40:39.372Z,5.90
2023-05-13T16:43:06.698Z,6.05
2023-05-13T16:45:33.953Z,6.38
2023-05-13T16:48:01.266Z,6.25
2023-05-13T16:50:29.779Z,6.65
2023-05-13T16:52:57.654Z,6.35
2023-05-13T16:55:26.409Z,6.45
2023-05-13T16:57:54.819Z,5.80
2023-05-13T17:00:22.423Z,6.57
2023-05-13T17:02:50.148Z,6.95
2023-05-13T17:05:19.083Z,6.25
2023-05-13T17:07:46.397Z,6.18
2023-05-13T17:10:13.678Z,6.97
2023-05-13T17:12:41.294Z,6.97
2023-05-13T17:15:09.270Z,6.93
2023-05-13T17:17:36.775Z,6.93
2023-05-13T17:20:05.776Z,6.60
2023-05-13T17:22:33.141Z,7.28
2023-05-13T17:25:00.503Z,6.95
2023-05-13T17:27:27.743Z,6.70
2023-05-13T17:29:55.119Z,6.72
2023-05-13T17:32:22.948Z,7.63
2023-05-13T17:34:50.991Z,7.15
2023-05-13T17:37:18.138Z,7.47
2023-05-13T17:39:45.473Z,6.53
2023-05-13T17:42:12.687Z,6.97
2023-05-13T17:44:40.150Z,6.75
2023-05-13T17:47:07.579Z,6.32
2023-05-13T17:49:36.335Z,7.63
2023-05-13T17:52:03.869Z,6.50
2023-05-13T17:54:31.195Z,6.30
2023-05-13T17:56:58.905Z,6.57
2023-05-13T17:59:26.120Z,6.28
2023-05-13T18:01:53.485Z,6.32
2023-05-13T18:04:20.788Z,5.72
2023-05-13T18:06:48.148Z,6.57
2023-05-13T18:09:15.635Z,5.68
2023-05-13T18:11:42.915Z,6.00
2023-05-13T18:14:12.905Z,5.70
2023-05-13T18:16:40.282Z,6.45
2023-05-13T18:19:07.644Z,8.48
2023-05-13T18:21:35.120Z,6.47
2023-05-13T18:24:02.483Z,6.10
2023-05-13T18:26:29.787Z,6.28
2023-05-13T18:28:57.038Z,6.82
2023-05-13T18:31:24.311Z,6.60
2023-05-13T18:33:51.750Z,6.78
2023-05-13T18:36:19.046Z,5.97
2023-05-13T18:38:48.381Z,6.50
2023-05-13T18:41:18.788Z,5.95
2023-05-13T18:43:48.382Z,6.22
2023-05-13T18:46:15.849Z,6.72
2023-05-13T18:48:43.070Z,6.50
2023-05-13T18:51:11.273Z,5.78
2023-05-13T18:53:38.622Z,6.82
2023-05-13T18:56:06.218Z,7.05
2023-05-13T18:58:33.503Z,7.22
2023-05-13T19:01:00.764Z,6.53
2023-05-13T19:03:28.970Z,6.95
2023-05-13T19:05:56.455Z,6.85
2023-05-13T19:08:23.723Z,6.00
2023-05-13T19:10:50.965Z,7.70
2023-05-13T19:13:20.172Z,7.05
2023-05-13T19:15:47.520Z,7.05
2023-05-13T19:18:15.095Z,7.38
2023-05-13T19:20:43.808Z,6.90
2023-05-13T19:23:11.136Z,7.63
2023-05-13T19:25:42.530Z,6.57
2023-05-13T19:28:10.933Z,8.00
2023-05-13T19:30:39.004Z,7.88
2023-05-13T19:33:06.459Z,7.40
2023-05-13T19:35:34.087Z,7.60
2023-05-13T19:38:01.503Z,7.32
2023-05-13T19:40:28.882Z,8.18
2023-05-13T19:42:57.484Z,8.10
2023-05-13T19:45:24.806Z,7.47
2023-05-13T19:47:52.180Z,7.75
2023-05-13T19:50:19.471Z,7.30
2023-05-13T19:52:46.660Z,7.70
2023-05-13T19:55:14.043Z,7.38
2023-05-13T19:57:42.689Z,7.25
2023-05-13T20:00:12.020Z,7.38
2023-05-13T20:02:40.147Z,6.95
2023-05-13T20:05:09.436Z,7.40
2023-05-13T20:07:38.926Z,7.18
2023-05-13T20:10:07.560Z,7.53
2023-05-13T20:12:34.908Z,7.32
2023-05-13T20:15:03.829Z,7.63
2023-05-13T20:17:31.277Z,7.90
2023-05-13T20:19:58.802Z,7.60
2023-05-13T20:22:26.079Z,7.47
2023-05-13T20:24:54.732Z,7.65
2023-05-13T20:27:21.968Z,7.43
2023-05-13T20:29:49.784Z,7.38
2023-05-13T20:32:18.886Z,7.13
2023-05-13T20:34:46.103Z,7.35
2023-05-13T20:37:13.669Z,7.40
2023-05-13T20:39:41.084Z,7.57
2023-05-13T20:42:10.079Z,7.70
2023-05-13T20:44:38.308Z,7.50
2023-05-13T20:47:05.967Z,7.70
2023-05-13T20:49:34.457Z,7.43
2023-05-13T20:52:04.564Z,7.32
2023-05-13T20:54:32.504Z,7.30
2023-05-13T20:57:01.544Z,6.55
2023-05-13T20:59:28.805Z,7.32
2023-05-13T21:01:56.050Z,7.28
2023-05-13T21:04:23.503Z,7.38
2023-05-13T21:06:50.689Z,7.38
2023-05-13T21:09:17.913Z,6.72
2023-05-13T21:11:44.944Z,7.57
2023-05-13T21:14:12.103Z,7.20
2023-05-13T21:16:39.290Z,7.28
2023-05-13T21:19:06.530Z,7.57
2023-05-13T21:21:33.690Z,7.53
2023-05-13T21:24:00.843Z,7.88
2023-05-13T21:26:28.053Z,7.85
2023-05-13T21:28:55.139Z,8.45
2023-05-13T21:31:22.292Z,8.38
2023-05-13T21:33:49.423Z,7.82
2023-05-13T21:36:16.545Z,8.60
2023-05-13T21:38:43.597Z,9.10
2023-05-13T21:41:10.697Z,8.93
2023-05-13T21:43:37.816Z,9.30
2023-05-13T21:46:06.731Z,9.15
2023-05-13T21:48:36.873Z,9.98
2023-05-13T21:51:04.291Z,10.38
2023-05-13T21:53:31.386Z,10.23
2023-05-13T21:56:00.395Z,10.38
2023-05-13T21:58:27.802Z,10.10
2023-05-13T22:00:54.909Z,10.70
2023-05-13T22:03:22.189Z,9.75
2023-05-13T22:05:49.463Z,11.80
2023-05-13T22:08:16.532Z,10.45
2023-05-13T22:10:43.683Z,11.82
2023-05-13T22:13:10.766Z,11.98
2023-05-13T22:15:37.930Z,10.80
2023-05-13T22:18:05.139Z,10.63
2023-05-13T22:20:32.342Z,10.77
2023-05-13T22:22:59.436Z,9.60
2023-05-13T22:25:28.571Z,9.88
2023-05-13T22:27:56.160Z,9.93
2023-05-13T22:30:23.503Z,9.90
2023-05-13T22:32:52.286Z,10.20
2023-05-13T22:35:19.327Z,10.73
2023-05-13T22:37:46.488Z,9.80
2023-05-13T22:40:14.103Z,9.55
2023-05-13T22:42:41.142Z,10.10
2023-05-13T22:45:09.246Z,9.70
2023-05-13T22:47:37.387Z,9.85
2023-05-13T22:50:05.285Z,9.40
2023-05-13T22:52:32.578Z,9.35
2023-05-13T22:54:59.663Z,10.25
2023-05-13T22:57:27.840Z,9.65
2023-05-13T22:59:54.947Z,9.73
2023-05-13T23:02:22.056Z,9.90
2023-05-13T23:04:49.090Z,9.32
2023-05-13T23:07:16.214Z,9.38
2023-05-13T23:09:43.265Z,9.55
2023-05-13T23:12:10.338Z,9.70
2023-05-13T23:14:37.395Z,9.50
2023-05-13T23:17:04.471Z,10.55
2023-05-13T23:19:31.521Z,10.38
2023-05-13T23:21:58.658Z,9.70
2023-05-13T23:24:25.698Z,9.48
2023-05-13T23:26:52.728Z,9.60
2023-05-13T23:29:19.739Z,9.55
2023-05-13T23:31:46.843Z,9.55
2023-05-13T23:34:14.041Z,9.90
2023-05-13T23:36:41.122Z,9.57
2023-05-13T23:39:08.603Z,9.70
2023-05-13T23:41:36.103Z,9.68
2023-05-13T23:44:04.478Z,10.75
2023-05-13T23:46:32.407Z,9.65
2023-05-13T23:49:00.059Z,9.88
2023-05-13T23:51:27.136Z,10.73
2023-05-13T23:53:55.644Z,10.07
2023-05-13T23:56:24.890Z,9.85
2023-05-13T23:58:51.929Z,10.05
